createdAt,value
2023-05-24T00:01:26.086Z,100285.72
2023-05-24T00:04:30.637Z,100241.09
2023-05-24T00:07:33.371Z,100263.09
2023-05-24T00:10:36.034Z,100261.81
2023-05-24T00:13:38.592Z,100235.41
2023-05-24T00:16:40.974Z,100260.81
2023-05-24T00:19:43.188Z,100262.69
2023-05-24T00:22:46.467Z,100257.97
2023-05-24T00:25:49.254Z,100253.63
2023-05-24T00:28:52.640Z,100266.78
2023-05-24T00:31:54.920Z,100258.28
2023-05-24T00:34:57.418Z,100256.06
2023-05-24T00:37:59.939Z,100255.91
2023-05-24T00:41:02.173Z,100250.97
2023-05-24T00:44:04.425Z,100247.84
2023-05-24T00:47:06.891Z,100251.06
2023-05-24T00:50:13.342Z,100259.75
2023-05-24T00:53:15.961Z,100254.97
2023-05-24T00:56:18.752Z,100246.28
2023-05-24T00:59:21.042Z,100252.41
2023-05-24T01:02:26.303Z,100250.66
2023-05-24T01:05:28.526Z,100246.38
2023-05-24T01:08:46.224Z,100249.34
2023-05-24T01:12:08.112Z,100253.38
2023-05-24T01:15:19.984Z,100259.38
2023-05-24T01:18:31.451Z,100256.94
2023-05-24T01:22:00.004Z,100255.56
2023-05-24T01:25:24.979Z,100255.19
2023-05-24T01:28:27.984Z,100251.97
2023-05-24T01:31:30.444Z,100243.88
2023-05-24T01:34:32.996Z,100248.38
2023-05-24T01:37:35.352Z,100241.56
2023-05-24T01:40:39.265Z,100241.72
2023-05-24T01:44:16.692Z,100238.44
2023-05-24T01:47:28.140Z,100233.66
2023-05-24T01:50:37.194Z,100240.06
2023-05-24T01:53:47.148Z,100211.94
2023-05-24T01:56:50.069Z,100233.59
2023-05-24T01:59:53.446Z,100235.50
2023-05-24T02:02:57.407Z,100235.28
2023-05-24T02:05:59.960Z,100236.69
2023-05-24T02:09:02.105Z,100242.38
2023-05-24T02:12:04.516Z,100238.91
2023-05-24T02:15:07.123Z,100238.53
2023-05-24T02:18:09.420Z,100232.94
2023-05-24T02:21:13.238Z,100236.31
2023-05-24T02:24:16.796Z,100233.91
2023-05-24T02:27:20.656Z,100238.97
2023-05-24T02:30:22.811Z,100236.53
2023-05-24T02:33:29.869Z,100237.78
2023-05-24T02:36:32.962Z,100240.53
2023-05-24T02:39:35.186Z,100234.97
2023-05-24T02:42:38.612Z,100226.59
2023-05-24T02:45:41.010Z,100225.88
2023-05-24T02:48:43.405Z,100233.25
2023-05-24T02:51:46.453Z,100232.19
2023-05-24T02:54:49.317Z,100237.19
2023-05-24T02:57:51.686Z,100233.91
2023-05-24T03:00:54.254Z,100235.78
2023-05-24T03:03:57.676Z,100241.75
2023-05-24T03:07:00.132Z,100245.38
2023-05-24T03:10:02.460Z,100242.78
2023-05-24T03:13:04.924Z,100251.16
2023-05-24T03:16:07.737Z,100252.16
2023-05-24T03:19:10.969Z,100241.69
2023-05-24T03:22:15.768Z,100247.16
2023-05-24T03:25:19.155Z,100245.31
2023-05-24T03:28:22.472Z,100239.25
2023-05-24T03:31:26.821Z,100236.53
2023-05-24T03:34:30.337Z,100240.94
2023-05-24T03:37:32.797Z,100234.53
2023-05-24T03:40:35.245Z,100251.03
2023-05-24T03:43:40.099Z,100257.19
2023-05-24T03:46:42.236Z,100243.31
2023-05-24T03:49:44.769Z,100252.00
2023-05-24T03:52:48.360Z,100269.16
2023-05-24T03:55:50.944Z,100265.19
2023-05-24T03:58:53.602Z,100267.16
2023-05-24T04:01:56.443Z,100269.44
2023-05-24T04:04:58.823Z,100277.66
2023-05-24T04:08:02.538Z,100270.66
2023-05-24T04:11:05.242Z,100280.03
2023-05-24T04:14:07.846Z,100278.59
2023-05-24T04:17:10.610Z,100285.44
2023-05-24T04:20:13.966Z,100278.38
2023-05-24T04:23:17.580Z,100291.47
2023-05-24T04:26:21.558Z,100288.59
2023-05-24T04:29:26.907Z,100299.13
2023-05-24T04:32:30.646Z,100294.03
2023-05-24T04:35:32.861Z,100296.81
2023-05-24T04:38:36.378Z,100286.47
2023-05-24T04:41:39.051Z,100298.66
2023-05-24T04:44:41.960Z,100297.75
2023-05-24T04:47:44.274Z,100296.47
2023-05-24T04:50:46.624Z,100295.16
2023-05-24T04:53:48.773Z,100284.34
2023-05-24T04:56:51.952Z,100288.88
2023-05-24T04:59:54.432Z,100300.75
2023-05-24T05:02:57.000Z,100301.91
2023-05-24T05:05:59.829Z,100297.06
2023-05-24T05:09:02.135Z,100318.56
2023-05-24T05:12:06.922Z,100326.00
2023-05-24T05:15:09.765Z,100326.56
2023-05-24T05:18:12.495Z,100322.84
2023-05-24T05:21:14.521Z,100322.63
2023-05-24T05:24:17.293Z,100314.75
2023-05-24T05:27:19.344Z,100319.31
2023-05-24T05:30:22.014Z,100315.03
2023-05-24T05:33:24.956Z,100325.50
2023-05-24T05:36:27.327Z,100317.97
2023-05-24T05:39:31.879Z,100316.50
2023-05-24T05:42:34.515Z,100318.34
2023-05-24T05:45:42.614Z,100318.22
2023-05-24T05:48:46.419Z,100318.88
2023-05-24T05:51:49.043Z,100322.28
2023-05-24T05:54:56.999Z,100317.59
2023-05-24T05:58:00.437Z,100320.13
2023-05-24T06:01:02.805Z,100314.97
2023-05-24T06:04:08.925Z,100331.19
2023-05-24T06:07:15.079Z,100325.03
2023-05-24T06:14:24.055Z,100348.41
2023-05-24T06:18:03.680Z,100317.66
2023-05-24T06:24:33.459Z,100323.25
2023-05-24T06:27:48.027Z,100323.72
2023-05-24T06:31:00.369Z,100343.69
2023-05-24T06:34:04.338Z,100363.53
2023-05-24T06:37:10.933Z,100349.59
2023-05-24T06:40:16.462Z,100352.81
2023-05-24T06:43:28.357Z,100348.78
2023-05-24T06:46:34.868Z,100356.34
2023-05-24T06:49:38.059Z,100369.53
2023-05-24T06:52:56.413Z,100370.47
2023-05-24T06:56:01.821Z,100366.97
2023-05-24T06:59:12.056Z,100359.22
2023-05-24T07:02:26.968Z,100364.88
2023-05-24T07:06:23.817Z,100337.72
2023-05-24T07:09:34.895Z,100354.91
2023-05-24T07:13:14.073Z,100390.16
2023-05-24T07:16:28.311Z,100358.75
2023-05-24T07:19:31.479Z,100379.75
2023-05-24T07:22:43.445Z,100351.47
2023-05-24T07:25:57.373Z,100346.28
2023-05-24T07:29:06.065Z,100365.25
2023-05-24T07:32:12.148Z,100399.75
2023-05-24T07:35:24.808Z,100402.50
2023-05-24T07:38:31.963Z,100388.88
2023-05-24T07:41:35.050Z,100404.09
2023-05-24T07:44:37.806Z,100407.78
2023-05-24T07:47:46.848Z,100405.38
2023-05-24T07:50:52.972Z,100407.69
2023-05-24T07:53:55.219Z,100383.31
2023-05-24T07:56:59.034Z,100406.03
2023-05-24T08:00:12.378Z,100413.28
2023-05-24T08:04:25.658Z,100415.81
2023-05-24T08:11:01.381Z,100425.09
2023-05-24T08:14:10.356Z,100410.75
2023-05-24T08:17:13.096Z,100373.81
2023-05-24T08:20:16.320Z,100421.41
2023-05-24T08:23:18.754Z,100406.31
2023-05-24T08:26:21.245Z,100399.81
2023-05-24T08:29:24.234Z,100414.78
2023-05-24T08:32:29.611Z,100434.47
2023-05-24T08:35:31.958Z,100439.25
2023-05-24T08:38:34.273Z,100431.22
2023-05-24T08:41:42.359Z,100443.69
2023-05-24T08:44:56.331Z,100436.31
2023-05-24T08:48:01.954Z,100435.50
2023-05-24T08:51:11.229Z,100458.84
2023-05-24T08:54:17.281Z,100463.13
2023-05-24T08:57:27.160Z,100466.22
2023-05-24T09:00:31.178Z,100464.00
2023-05-24T09:03:49.033Z,100457.34
2023-05-24T09:06:59.036Z,100442.56
2023-05-24T09:10:13.114Z,100456.16
2023-05-24T09:13:18.231Z,100438.69
2023-05-24T09:16:36.357Z,100463.84
2023-05-24T09:19:48.324Z,100436.81
2023-05-24T09:23:00.738Z,100436.94
2023-05-24T09:26:12.879Z,100461.25
2023-05-24T09:29:29.275Z,100457.56
2023-05-24T09:32:32.461Z,100438.34
2023-05-24T09:35:37.850Z,100439.25
2023-05-24T09:38:44.031Z,100423.38
2023-05-24T09:41:57.681Z,100448.53
2023-05-24T09:54:21.210Z,100415.72
2023-05-24T09:58:10.336Z,100457.34
2023-05-24T10:09:50.507Z,100452.28
2023-05-24T10:12:58.585Z,100418.59
2023-05-24T10:16:07.068Z,100447.72
2023-05-24T10:19:58.554Z,100443.31
2023-05-24T10:30:28.429Z,100446.78
2023-05-24T10:40:54.313Z,100433.28
2023-05-24T10:44:27.566Z,100417.44
2023-05-24T10:47:45.102Z,100418.00
2023-05-24T10:50:53.372Z,100434.63
2023-05-24T10:53:59.181Z,100423.13
2023-05-24T10:57:34.528Z,100408.28
2023-05-24T11:00:46.684Z,100426.84
2023-05-24T11:03:51.919Z,100424.91
2023-05-24T11:07:10.227Z,100440.88
2023-05-24T11:10:50.362Z,100420.81
2023-05-24T11:20:14.684Z,100439.22
2023-05-24T11:23:32.785Z,100425.50
2023-05-24T11:26:37.451Z,100421.25
2023-05-24T11:29:56.497Z,100393.06
2023-05-24T11:33:27.986Z,100403.56
2023-05-24T11:36:37.145Z,100424.97
2023-05-24T11:39:46.332Z,100395.88
2023-05-24T11:42:53.945Z,100377.44
2023-05-24T11:45:57.978Z,100411.75
2023-05-24T11:49:03.941Z,100409.94
2023-05-24T11:52:07.733Z,100370.75
2023-05-24T11:55:17.562Z,100413.41
2023-05-24T12:03:09.996Z,100390.13
2023-05-24T12:10:34.459Z,100369.78
2023-05-24T12:13:38.696Z,100390.91
2023-05-24T12:17:12.883Z,100418.50
2023-05-24T12:21:31.288Z,100393.44
2023-05-24T12:24:54.187Z,100395.53
2023-05-24T12:28:19.438Z,100393.22
2023-05-24T12:31:22.970Z,100387.78
2023-05-24T12:34:26.350Z,100381.38
2023-05-24T12:37:31.257Z,100399.56
2023-05-24T12:40:34.977Z,100395.84
2023-05-24T12:43:37.212Z,100392.31
2023-05-24T12:46:45.181Z,100383.91
2023-05-24T12:49:59.488Z,100362.19
2023-05-24T12:53:01.688Z,100346.59
2023-05-24T12:56:06.769Z,100365.94
2023-05-24T12:59:09.065Z,100382.00
2023-05-24T13:02:12.247Z,100372.41
2023-05-24T13:09:58.321Z,100342.75
2023-05-24T13:13:04.285Z,100353.66
2023-05-24T13:16:09.236Z,100377.75
2023-05-24T13:19:12.819Z,100373.69
2023-05-24T13:22:16.462Z,100368.59
2023-05-24T13:25:22.877Z,100363.81
2023-05-24T13:28:26.595Z,100371.03
2023-05-24T13:31:29.955Z,100370.03
2023-05-24T13:34:33.672Z,100365.34
2023-05-24T13:37:36.790Z,100359.00
2023-05-24T13:40:41.920Z,100362.28
2023-05-24T13:43:44.437Z,100366.53
2023-05-24T13:46:47.762Z,100345.66
2023-05-24T13:49:50.794Z,100348.00
2023-05-24T13:52:58.886Z,100348.41
2023-05-24T13:56:04.463Z,100366.25
2023-05-24T13:59:07.272Z,100354.50
2023-05-24T14:02:09.535Z,100359.78
2023-05-24T14:05:26.997Z,100350.88
2023-05-24T14:08:30.016Z,100359.16
2023-05-24T14:11:34.332Z,100353.72
2023-05-24T14:14:59.139Z,100349.47
2023-05-24T14:18:01.078Z,100339.94
2023-05-24T14:21:03.425Z,100353.38
2023-05-24T14:24:05.682Z,100361.00
2023-05-24T14:27:08.011Z,100357.81
2023-05-24T14:30:10.750Z,100353.72
2023-05-24T14:33:14.133Z,100343.88
2023-05-24T14:36:16.517Z,100347.22
2023-05-24T14:39:18.770Z,100347.75
2023-05-24T14:42:21.958Z,100354.16
2023-05-24T14:45:25.208Z,100353.97
2023-05-24T14:48:27.398Z,100356.94
2023-05-24T14:51:29.825Z,100362.75
2023-05-24T14:54:32.330Z,100361.88
2023-05-24T14:57:36.074Z,100364.63
2023-05-24T15:00:39.740Z,100376.66
2023-05-24T15:03:42.443Z,100372.34
2023-05-24T15:06:45.088Z,100374.59
2023-05-24T15:09:48.572Z,100378.09
2023-05-24T15:12:52.903Z,100381.25
2023-05-24T15:15:56.781Z,100371.16
2023-05-24T15:18:59.597Z,100372.22
2023-05-24T15:22:01.933Z,100373.47
2023-05-24T15:25:04.276Z,100371.56
2023-05-24T15:28:06.881Z,100373.56
2023-05-24T15:31:10.249Z,100376.69
2023-05-24T15:34:12.607Z,100374.78
2023-05-24T15:37:14.871Z,100375.00
2023-05-24T15:40:17.217Z,100370.31
2023-05-24T15:43:20.404Z,100377.44
2023-05-24T15:46:24.177Z,100382.19
2023-05-24T15:49:26.919Z,100377.06
2023-05-24T15:52:30.634Z,100366.81
2023-05-24T15:55:34.042Z,100375.81
2023-05-24T15:58:36.386Z,100382.84
2023-05-24T16:01:39.198Z,100364.56
2023-05-24T16:04:43.315Z,100385.03
2023-05-24T16:07:46.592Z,100383.19
2023-05-24T16:10:49.371Z,100377.50
2023-05-24T16:13:54.316Z,100388.03
2023-05-24T16:16:58.580Z,100391.78
2023-05-24T16:20:05.143Z,100398.16
2023-05-24T16:23:07.978Z,100402.09
2023-05-24T16:26:10.192Z,100401.97
2023-05-24T16:29:15.487Z,100406.00
2023-05-24T16:32:17.748Z,100404.69
2023-05-24T16:35:19.806Z,100412.22
2023-05-24T16:38:23.775Z,100407.69
2023-05-24T16:41:27.962Z,100419.97
2023-05-24T16:44:30.757Z,100424.41
2023-05-24T16:47:33.008Z,100435.91
2023-05-24T16:50:36.407Z,100428.59
2023-05-24T16:53:40.247Z,100434.38
2023-05-24T16:56:42.798Z,100418.38
2023-05-24T16:59:45.382Z,100436.97
2023-05-24T17:06:24.481Z,100450.16
2023-05-24T17:09:26.451Z,100441.09
2023-05-24T17:12:29.695Z,100449.59
2023-05-24T17:15:31.956Z,100449.03
2023-05-24T17:18:34.229Z,100454.22
2023-05-24T17:21:36.991Z,100457.94
2023-05-24T17:24:40.157Z,100462.34
2023-05-24T17:27:42.870Z,100467.06
2023-05-24T17:30:45.735Z,100469.66
2023-05-24T17:33:47.785Z,100483.78
2023-05-24T17:36:50.037Z,100481.50
2023-05-24T17:39:52.626Z,100465.00
2023-05-24T17:42:54.916Z,100469.84
2023-05-24T17:46:04.720Z,100490.03
2023-05-24T17:49:07.126Z,100487.25
2023-05-24T17:52:09.260Z,100487.41
2023-05-24T17:55:11.306Z,100485.56
2023-05-24T17:58:15.241Z,100483.75
2023-05-24T18:01:17.580Z,100499.63
2023-05-24T18:04:20.434Z,100495.25
2023-05-24T18:07:22.667Z,100509.09
2023-05-24T18:10:24.804Z,100513.78
2023-05-24T18:13:28.143Z,100513.44
2023-05-24T18:16:31.674Z,100518.91
2023-05-24T18:19:34.083Z,100531.66
2023-05-24T18:22:36.049Z,100524.34
2023-05-24T18:25:41.152Z,100539.41
2023-05-24T18:28:44.741Z,100534.19
2023-05-24T18:31:47.247Z,100547.16
2023-05-24T18:34:50.404Z,100542.41
2023-05-24T18:37:52.358Z,100546.25
2023-05-24T18:40:54.263Z,100542.22
2023-05-24T18:43:56.732Z,100542.56
2023-05-24T18:46:59.683Z,100538.41
2023-05-24T18:50:01.680Z,100542.66
2023-05-24T18:53:04.668Z,100562.00
2023-05-24T18:56:08.246Z,100556.47
2023-05-24T18:59:12.371Z,100560.25
2023-05-24T19:02:14.729Z,100564.03
2023-05-24T19:05:16.845Z,100565.25
2023-05-24T19:08:18.890Z,100571.66
2023-05-24T19:11:23.086Z,100572.13
2023-05-24T19:14:25.773Z,100566.09
2023-05-24T19:17:27.855Z,100564.94
2023-05-24T19:20:30.328Z,100569.81
2023-05-24T19:23:32.712Z,100572.91
2023-05-24T19:26:37.866Z,100581.59
2023-05-24T19:29:40.368Z,100575.31
2023-05-24T19:32:42.756Z,100580.66
2023-05-24T19:35:45.286Z,100577.28
2023-05-24T19:38:50.556Z,100573.91
2023-05-24T19:41:55.449Z,100583.41
2023-05-24T19:44:57.479Z,100595.16
2023-05-24T19:47:59.564Z,100600.38
2023-05-24T19:51:01.828Z,100600.88
2023-05-24T19:54:04.093Z,100608.66
2023-05-24T19:57:06.584Z,100597.06
2023-05-24T20:00:12.438Z,100593.81
2023-05-24T20:03:14.511Z,100592.38
2023-05-24T20:06:16.778Z,100598.88
2023-05-24T20:09:19.481Z,100596.28
2023-05-24T20:12:23.049Z,100598.72
2023-05-24T20:15:28.379Z,100591.72
2023-05-24T20:18:30.695Z,100591.50
2023-05-24T20:21:32.934Z,100583.59
2023-05-24T20:24:35.095Z,100584.19
2023-05-24T20:27:40.642Z,100589.03
2023-05-24T20:30:45.856Z,100585.78
2023-05-24T20:33:49.861Z,100585.94
2023-05-24T20:36:52.176Z,100577.91
2023-05-24T20:39:54.339Z,100583.94
2023-05-24T20:42:56.470Z,100579.91
2023-05-24T20:46:00.804Z,100597.16
2023-05-24T20:49:02.867Z,100596.13
2023-05-24T20:52:06.122Z,100603.28
2023-05-24T20:55:08.611Z,100607.78
2023-05-24T20:58:11.198Z,100600.13
2023-05-24T21:01:13.889Z,100596.13
2023-05-24T21:04:16.274Z,100604.09
2023-05-24T21:07:18.044Z,100601.31
2023-05-24T21:10:20.600Z,100599.91
2023-05-24T21:13:22.851Z,100602.56
2023-05-24T21:16:26.048Z,100603.31
2023-05-24T21:19:30.610Z,100613.72
2023-05-24T21:22:35.388Z,100612.28
2023-05-24T21:25:39.655Z,100600.09
2023-05-24T21:28:41.695Z,100600.56
2023-05-24T21:31:44.110Z,100606.09
2023-05-24T21:34:46.419Z,100594.94
2023-05-24T21:37:48.878Z,100604.16
2023-05-24T21:40:51.130Z,100600.09
2023-05-24T21:43:53.310Z,100609.69
2023-05-24T21:46:56.088Z,100610.53
2023-05-24T21:49:59.414Z,100619.31
2023-05-24T21:53:02.521Z,100619.41
2023-05-24T21:59:21.529Z,100627.69
2023-05-24T22:02:23.845Z,100631.75
2023-05-24T22:05:27.767Z,100639.13
2023-05-24T22:08:30.881Z,100648.50
2023-05-24T22:11:35.117Z,100642.59
2023-05-24T22:14:38.362Z,100638.53
2023-05-24T22:17:42.056Z,100644.88
2023-05-24T22:20:45.760Z,100646.94
2023-05-24T22:23:48.000Z,100657.75
2023-05-24T22:26:50.076Z,100658.19
2023-05-24T22:29:53.825Z,100629.75
2023-05-24T22:32:56.735Z,100658.84
2023-05-24T22:35:58.858Z,100655.59
2023-05-24T22:39:01.715Z,100655.59
2023-05-24T22:42:04.008Z,100667.44
2023-05-24T22:45:06.831Z,100668.31
2023-05-24T22:48:10.620Z,100663.78
2023-05-24T22:51:13.186Z,100667.25
2023-05-24T22:54:15.902Z,100673.00
2023-05-24T22:57:22.616Z,100675.06
2023-05-24T23:00:24.799Z,100675.66
2023-05-24T23:03:26.821Z,100670.34
2023-05-24T23:06:32.078Z,100677.97
2023-05-24T23:09:34.929Z,100674.50
2023-05-24T23:12:37.207Z,100675.72
2023-05-24T23:15:42.729Z,100682.72
2023-05-24T23:18:45.563Z,100683.91
2023-05-24T23:21:53.239Z,100687.16
2023-05-24T23:24:55.151Z,100687.41
2023-05-24T23:27:57.190Z,100681.03
2023-05-24T23:30:59.458Z,100686.97
2023-05-24T23:34:01.501Z,100689.41
2023-05-24T23:37:04.806Z,100689.59
2023-05-24T23:40:08.752Z,100698.03
2023-05-24T23:43:13.854Z,100703.50
2023-05-24T23:46:17.677Z,100699.47
2023-05-24T23:49:20.651Z,100696.03
2023-05-24T23:52:22.772Z,100704.41
2023-05-24T23:55:24.788Z,100695.22
2023-05-24T23:58:26.887Z,100709.34
